createdAt,value
2023-05-09T00:00:57.929Z,15.86
2023-05-09T00:06:01.243Z,15.80
2023-05-09T00:11:04.283Z,15.74
2023-05-09T00:16:09.570Z,15.68
2023-05-09T00:21:12.639Z,15.65
2023-05-09T00:26:17.632Z,15.56
2023-05-09T00:31:22.784Z,15.57
2023-05-09T00:36:25.934Z,15.48
2023-05-09T00:41:29.000Z,15.48
2023-05-09T00:46:33.714Z,15.41
2023-05-09T00:51:38.407Z,15.34
2023-05-09T00:56:41.530Z,15.27
2023-05-09T01:01:46.022Z,15.28
2023-05-09T01:06:56.955Z,15.25
2023-05-09T01:12:11.658Z,15.22
2023-05-09T01:17:27.963Z,15.20
2023-05-09T01:22:36.136Z,15.09
2023-05-09T01:27:49.624Z,15.18
2023-05-09T01:32:59.290Z,15.18
2023-05-09T01:38:13.237Z,15.13
2023-05-09T01:43:19.318Z,15.10
2023-05-09T01:48:27.330Z,15.13
2023-05-09T01:53:31.440Z,15.12
2023-05-09T01:58:37.138Z,15.04
2023-05-09T02:03:41.778Z,14.94
2023-05-09T02:08:45.239Z,15.09
2023-05-09T02:13:48.633Z,15.07
2023-05-09T02:18:53.311Z,15.04
2023-05-09T02:23:56.355Z,15.05
2023-05-09T02:29:00.126Z,15.01
2023-05-09T02:34:06.335Z,14.92
2023-05-09T02:39:11.539Z,14.96
2023-05-09T02:44:14.502Z,14.89
2023-05-09T02:49:31.330Z,14.91
2023-05-09T02:54:36.254Z,14.80
2023-05-09T02:59:39.414Z,14.86
2023-05-09T03:04:43.907Z,14.78
2023-05-09T03:09:46.934Z,14.72
2023-05-09T03:14:50.598Z,14.76
2023-05-09T03:19:56.545Z,14.72
2023-05-09T03:24:59.545Z,14.39
2023-05-09T03:30:02.601Z,14.70
2023-05-09T03:35:08.309Z,14.70
2023-05-09T03:40:12.717Z,14.69
2023-05-09T03:45:27.480Z,14.70
2023-05-09T03:50:32.427Z,14.69
2023-05-09T03:55:35.828Z,14.69
2023-05-09T04:00:39.747Z,14.68
2023-05-09T04:05:50.097Z,14.67
2023-05-09T04:11:05.008Z,14.70
2023-05-09T04:16:09.270Z,14.73
2023-05-09T04:21:13.739Z,14.58
2023-05-09T04:26:18.360Z,14.62
2023-05-09T04:31:27.594Z,14.74
2023-05-09T04:36:33.865Z,14.83
2023-05-09T04:41:36.940Z,14.87
2023-05-09T04:46:40.459Z,14.98
2023-05-09T04:51:45.051Z,15.10
2023-05-09T04:56:50.027Z,15.08
2023-05-09T05:01:54.038Z,15.14
2023-05-09T05:06:58.952Z,15.09
2023-05-09T05:12:03.608Z,15.20
2023-05-09T05:17:08.482Z,15.33
2023-05-09T05:22:13.466Z,15.37
2023-05-09T05:27:19.454Z,15.45
2023-05-09T05:32:25.711Z,15.40
2023-05-09T05:37:30.378Z,15.41
2023-05-09T05:42:33.778Z,15.33
2023-05-09T05:47:38.227Z,14.91
2023-05-09T05:52:43.781Z,14.86
2023-05-09T05:57:50.178Z,14.87
2023-05-09T06:02:53.448Z,14.85
2023-05-09T06:08:18.150Z,14.83
2023-05-09T06:13:21.274Z,14.84
2023-05-09T06:18:28.609Z,14.88
2023-05-09T06:23:33.085Z,14.97
2023-05-09T06:28:36.247Z,15.00
2023-05-09T06:33:42.335Z,15.01
2023-05-09T06:38:46.786Z,15.04
2023-05-09T06:43:51.256Z,15.10
2023-05-09T06:48:54.272Z,14.99
2023-05-09T06:53:58.973Z,15.07
2023-05-09T06:59:02.027Z,15.03
2023-05-09T07:04:05.916Z,15.01
2023-05-09T07:09:11.086Z,15.01
2023-05-09T07:14:14.244Z,14.88
2023-05-09T07:19:17.323Z,14.81
2023-05-09T07:24:22.079Z,14.77
2023-05-09T07:29:25.286Z,14.79
2023-05-09T07:34:28.510Z,14.83
2023-05-09T07:39:32.983Z,14.96
2023-05-09T07:44:36.035Z,14.90
2023-05-09T07:49:40.345Z,15.06
2023-05-09T07:54:44.919Z,15.02
2023-05-09T07:59:48.044Z,15.03
2023-05-09T08:04:51.626Z,15.10
2023-05-09T08:09:56.081Z,15.21
2023-05-09T08:15:00.899Z,15.19
2023-05-09T08:20:06.195Z,15.27
2023-05-09T08:25:11.554Z,15.26
2023-05-09T08:30:15.880Z,15.32
2023-05-09T08:35:20.410Z,15.29
2023-05-09T08:40:25.285Z,15.46
2023-05-09T08:45:31.573Z,15.51
2023-05-09T08:50:35.673Z,15.59
2023-05-09T08:55:40.835Z,15.59
2023-05-09T09:00:44.101Z,15.81
2023-05-09T09:05:48.767Z,15.76
2023-05-09T09:10:53.910Z,15.64
2023-05-09T09:16:01.083Z,15.69
2023-05-09T09:21:08.233Z,15.77
2023-05-09T09:26:12.713Z,15.92
2023-05-09T09:31:22.863Z,15.95
2023-05-09T09:36:29.870Z,15.82
2023-05-09T09:41:35.146Z,15.80
2023-05-09T09:46:46.487Z,15.68
2023-05-09T09:51:53.757Z,15.79
2023-05-09T09:56:58.123Z,15.50
2023-05-09T10:02:07.189Z,15.55
2023-05-09T10:07:15.125Z,15.70
2023-05-09T10:12:20.876Z,15.74
2023-05-09T10:17:26.197Z,15.76
2023-05-09T10:22:31.062Z,15.80
2023-05-09T10:27:37.682Z,15.76
2023-05-09T10:32:44.512Z,15.66
2023-05-09T10:37:49.712Z,15.58
2023-05-09T10:42:54.165Z,15.41
2023-05-09T10:47:57.806Z,15.57
2023-05-09T10:53:08.774Z,15.57
2023-05-09T10:58:25.798Z,15.71
2023-05-09T11:03:30.844Z,15.78
2023-05-09T11:08:34.358Z,15.65
2023-05-09T11:13:39.467Z,15.62
2023-05-09T11:18:53.405Z,15.74
2023-05-09T11:23:56.860Z,15.82
2023-05-09T11:29:03.050Z,15.78
2023-05-09T11:34:06.718Z,15.70
2023-05-09T11:39:11.061Z,15.89
2023-05-09T11:44:17.438Z,16.07
2023-05-09T11:49:20.711Z,16.07
2023-05-09T11:54:25.325Z,16.08
2023-05-09T11:59:30.285Z,16.20
2023-05-09T12:04:34.019Z,15.96
2023-05-09T12:09:38.725Z,16.06
2023-05-09T12:14:43.290Z,16.21
2023-05-09T12:19:46.475Z,16.02
2023-05-09T12:24:51.155Z,16.21
2023-05-09T12:29:56.718Z,16.18
2023-05-09T12:35:00.144Z,16.05
2023-05-09T12:40:05.074Z,15.75
2023-05-09T12:45:11.736Z,15.69
2023-05-09T12:50:15.702Z,15.53
2023-05-09T12:55:20.931Z,15.62
2023-05-09T13:00:26.753Z,15.53
2023-05-09T13:05:33.625Z,15.42
2023-05-09T13:10:36.932Z,15.65
2023-05-09T13:15:50.085Z,15.97
2023-05-09T13:20:53.190Z,15.89
2023-05-09T13:25:56.410Z,16.08
2023-05-09T13:31:01.557Z,16.25
2023-05-09T13:36:05.166Z,16.25
2023-05-09T13:41:08.618Z,16.28
2023-05-09T13:46:14.113Z,16.31
2023-05-09T13:51:17.673Z,15.99
2023-05-09T13:56:21.049Z,16.03
2023-05-09T14:01:26.103Z,16.20
2023-05-09T14:06:30.532Z,16.20
2023-05-09T14:11:33.929Z,16.08
2023-05-09T14:16:38.846Z,16.12
2023-05-09T14:21:42.748Z,15.96
2023-05-09T14:26:46.722Z,15.72
2023-05-09T14:31:51.476Z,15.63
2023-05-09T14:36:54.746Z,15.68
2023-05-09T14:41:57.953Z,15.62
2023-05-09T14:47:02.607Z,15.53
2023-05-09T14:52:05.947Z,15.59
2023-05-09T14:57:09.099Z,15.66
2023-05-09T15:02:13.855Z,15.46
2023-05-09T15:07:16.947Z,15.59
2023-05-09T15:12:20.185Z,15.49
2023-05-09T15:17:24.765Z,15.48
2023-05-09T15:22:28.238Z,15.50
2023-05-09T15:27:31.532Z,15.45
2023-05-09T15:32:38.121Z,15.45
2023-05-09T15:37:41.747Z,15.35
2023-05-09T15:42:45.644Z,15.31
2023-05-09T15:47:50.401Z,15.32
2023-05-09T15:52:53.621Z,15.43
2023-05-09T15:57:56.827Z,15.40
2023-05-09T16:03:01.678Z,15.38
2023-05-09T16:08:05.127Z,15.31
2023-05-09T16:13:08.922Z,15.30
2023-05-09T16:18:13.346Z,15.28
2023-05-09T16:23:16.371Z,15.30
2023-05-09T16:28:23.509Z,15.16
2023-05-09T16:33:28.699Z,15.17
2023-05-09T16:38:31.937Z,15.12
2023-05-09T16:43:38.239Z,15.07
2023-05-09T16:48:42.739Z,15.07
2023-05-09T16:53:46.443Z,14.92
2023-05-09T16:58:50.087Z,14.97
2023-05-09T17:03:54.652Z,14.94
2023-05-09T17:08:57.707Z,14.94
2023-05-09T17:14:03.066Z,14.90
2023-05-09T17:19:07.561Z,14.78
2023-05-09T17:24:15.831Z,14.91
2023-05-09T17:29:19.052Z,14.92
2023-05-09T17:34:23.879Z,14.90
2023-05-09T17:39:27.233Z,14.89
2023-05-09T17:44:30.373Z,14.89
2023-05-09T17:49:44.046Z,14.85
2023-05-09T17:54:47.372Z,14.82
2023-05-09T17:59:53.206Z,14.85
2023-05-09T18:04:57.807Z,14.69
2023-05-09T18:10:01.013Z,14.64
2023-05-09T18:15:04.190Z,14.60
2023-05-09T18:20:09.852Z,14.59
2023-05-09T18:25:13.679Z,14.56
2023-05-09T18:30:17.284Z,14.52
2023-05-09T18:35:21.953Z,14.31
2023-05-09T18:40:25.023Z,14.28
2023-05-09T18:45:28.104Z,14.06
2023-05-09T18:50:32.732Z,14.13
2023-05-09T18:55:36.013Z,14.05
2023-05-09T19:00:40.235Z,13.98
2023-05-09T19:05:46.217Z,14.00
2023-05-09T19:10:49.403Z,13.97
2023-05-09T19:15:52.485Z,13.87
2023-05-09T19:20:58.815Z,13.94
2023-05-09T19:26:01.849Z,13.85
2023-05-09T19:31:04.964Z,13.74
2023-05-09T19:36:09.492Z,13.67
2023-05-09T19:41:12.896Z,13.68
2023-05-09T19:46:16.106Z,13.69
2023-05-09T19:51:20.512Z,13.69
2023-05-09T19:56:24.010Z,13.76
2023-05-09T20:01:27.310Z,13.77
2023-05-09T20:06:32.343Z,13.78
2023-05-09T20:11:35.411Z,13.80
2023-05-09T20:16:38.749Z,13.70
2023-05-09T20:21:43.251Z,13.60
2023-05-09T20:26:46.680Z,13.56
2023-05-09T20:31:49.785Z,13.53
2023-05-09T20:36:55.241Z,13.56
2023-05-09T20:42:02.253Z,13.49
2023-05-09T20:47:05.633Z,13.45
2023-05-09T20:52:10.129Z,13.55
2023-05-09T20:57:15.924Z,13.58
2023-05-09T21:02:19.300Z,13.53
2023-05-09T21:07:23.948Z,13.47
2023-05-09T21:12:27.622Z,13.50
2023-05-09T21:17:31.301Z,13.54
2023-05-09T21:22:36.115Z,13.60
2023-05-09T21:27:39.221Z,13.57
2023-05-09T21:32:42.429Z,13.56
2023-05-09T21:37:47.266Z,13.64
2023-05-09T21:42:53.821Z,13.68
2023-05-09T21:47:57.408Z,13.69
2023-05-09T21:53:01.938Z,13.69
2023-05-09T21:58:05.034Z,13.72
2023-05-09T22:03:08.720Z,13.68
2023-05-09T22:08:13.605Z,13.77
2023-05-09T22:13:17.268Z,13.75
2023-05-09T22:18:20.356Z,13.70
2023-05-09T22:23:26.417Z,13.64
2023-05-09T22:28:29.413Z,13.60
2023-05-09T22:33:32.334Z,13.65
2023-05-09T22:38:36.775Z,13.60
2023-05-09T22:43:39.951Z,13.58
2023-05-09T22:48:46.769Z,13.54
2023-05-09T22:53:51.326Z,13.54
2023-05-09T22:58:54.324Z,13.36
2023-05-09T23:03:57.337Z,13.47
2023-05-09T23:09:01.913Z,13.46
2023-05-09T23:14:09.091Z,13.42
2023-05-09T23:19:12.198Z,13.31
2023-05-09T23:24:16.633Z,13.32
2023-05-09T23:29:19.645Z,13.28
2023-05-09T23:34:22.769Z,13.23
2023-05-09T23:39:29.500Z,13.24
2023-05-09T23:44:33.198Z,13.09
2023-05-09T23:49:37.001Z,13.16
2023-05-09T23:54:41.355Z,13.06
2023-05-09T23:59:44.855Z,13.05
